createdAt,value
2022-11-06T00:03:44.786Z,7.15
2022-11-06T00:08:46.078Z,6.93
2022-11-06T00:13:47.961Z,6.97
2022-11-06T00:18:49.904Z,7.55
2022-11-06T00:23:52.360Z,7.70
2022-11-06T00:28:54.286Z,6.60
2022-11-06T00:33:57.465Z,7.55
2022-11-06T00:38:59.797Z,7.43
2022-11-06T00:44:02.485Z,8.00
2022-11-06T00:49:03.799Z,6.95
2022-11-06T00:54:09.620Z,7.05
2022-11-06T00:59:13.194Z,6.75
2022-11-06T01:04:20.698Z,6.82
2022-11-06T01:09:24.482Z,6.55
2022-11-06T01:14:26.354Z,7.03
2022-11-06T01:19:27.722Z,7.60
2022-11-06T01:24:29.573Z,6.25
2022-11-06T01:29:31.120Z,6.85
2022-11-06T01:34:32.450Z,7.07
2022-11-06T01:39:33.743Z,7.10
2022-11-06T01:44:40.959Z,6.75
2022-11-06T01:49:42.667Z,6.90
2022-11-06T01:54:46.527Z,7.72
2022-11-06T01:59:50.552Z,7.57
2022-11-06T02:04:51.997Z,6.53
2022-11-06T02:09:53.331Z,7.55
2022-11-06T02:15:13.207Z,6.88
2022-11-06T02:20:28.827Z,7.63
2022-11-06T02:25:42.112Z,6.82
2022-11-06T02:30:47.479Z,7.57
2022-11-06T02:35:59.908Z,7.65
2022-11-06T02:41:06.849Z,8.75
2022-11-06T02:46:18.223Z,7.28
2022-11-06T02:51:24.593Z,7.80
2022-11-06T02:56:31.067Z,9.10
2022-11-06T03:01:44.957Z,8.10
2022-11-06T03:06:59.440Z,9.48
2022-11-06T03:12:28.444Z,8.30
2022-11-06T03:17:47.575Z,8.02
2022-11-06T03:23:10.143Z,8.88
2022-11-06T03:28:25.534Z,9.35
2022-11-06T03:33:37.113Z,9.20
2022-11-06T03:38:43.315Z,9.48
2022-11-06T03:43:47.634Z,10.23
2022-11-06T03:48:54.727Z,10.15
2022-11-06T03:54:02.459Z,8.60
2022-11-06T03:59:06.958Z,9.27
2022-11-06T04:04:31.343Z,8.50
2022-11-06T04:09:55.899Z,9.83
2022-11-06T04:14:59.189Z,11.95
2022-11-06T04:20:05.028Z,12.18
2022-11-06T04:25:37.042Z,11.82
2022-11-06T04:30:53.030Z,12.48
2022-11-06T04:36:07.324Z,12.30
2022-11-06T04:41:17.792Z,10.17
2022-11-06T04:46:23.428Z,9.65
2022-11-06T04:51:29.926Z,9.55
2022-11-06T04:56:35.600Z,10.60
2022-11-06T05:01:37.971Z,9.63
2022-11-06T05:06:39.417Z,9.98
2022-11-06T05:11:40.730Z,9.95
2022-11-06T05:16:42.213Z,8.85
2022-11-06T05:22:02.053Z,9.20
2022-11-06T05:27:03.414Z,9.05
2022-11-06T05:32:05.023Z,12.00
2022-11-06T05:37:06.517Z,12.20
2022-11-06T05:42:07.796Z,9.43
2022-11-06T05:47:09.194Z,10.13
2022-11-06T05:52:10.734Z,8.95
2022-11-06T05:57:12.226Z,9.40
2022-11-06T06:02:13.643Z,9.45
2022-11-06T06:07:15.036Z,9.48
2022-11-06T06:12:19.231Z,10.20
2022-11-06T06:17:20.941Z,9.48
2022-11-06T06:22:22.445Z,8.45
2022-11-06T06:27:25.779Z,9.13
2022-11-06T06:32:27.066Z,8.95
2022-11-06T06:37:28.427Z,8.70
2022-11-06T06:42:31.405Z,7.85
2022-11-06T06:47:32.908Z,8.10
2022-11-06T06:52:39.149Z,7.30
2022-11-06T06:57:43.569Z,7.55
2022-11-06T07:02:44.834Z,7.82
2022-11-06T07:07:46.715Z,7.68
2022-11-06T07:12:48.145Z,7.45
2022-11-06T07:17:49.492Z,7.50
2022-11-06T07:22:50.770Z,7.75
2022-11-06T07:27:52.071Z,7.18
2022-11-06T07:32:53.423Z,6.25
2022-11-06T07:37:54.891Z,6.53
2022-11-06T07:42:56.222Z,5.75
2022-11-06T07:47:59.217Z,5.95
2022-11-06T07:53:04.392Z,5.15
2022-11-06T07:58:05.781Z,5.40
2022-11-06T08:03:07.046Z,5.40
2022-11-06T08:08:08.798Z,5.88
2022-11-06T08:13:11.076Z,6.03
2022-11-06T08:18:12.905Z,6.00
2022-11-06T08:23:14.693Z,5.70
2022-11-06T08:28:16.526Z,5.95
2022-11-06T08:33:19.015Z,5.95
2022-11-06T08:38:20.606Z,6.28
2022-11-06T08:43:26.322Z,5.93
2022-11-06T08:48:27.736Z,6.00
2022-11-06T08:53:29.408Z,6.32
2022-11-06T08:58:31.178Z,5.80
2022-11-06T09:03:32.570Z,5.38
2022-11-06T09:08:34.258Z,5.63
2022-11-06T09:13:35.604Z,5.32
2022-11-06T09:18:36.884Z,6.07
2022-11-06T09:23:38.167Z,5.38
2022-11-06T09:28:39.503Z,5.18
2022-11-06T09:33:40.838Z,5.38
2022-11-06T09:38:42.206Z,5.95
2022-11-06T09:44:12.752Z,5.03
2022-11-06T09:49:26.326Z,4.60
2022-11-06T09:54:34.714Z,3.92
2022-11-06T09:59:38.105Z,4.50
2022-11-06T10:05:07.465Z,3.90
2022-11-06T10:10:26.041Z,4.40
2022-11-06T10:15:39.151Z,3.95
2022-11-06T10:20:51.639Z,3.75
2022-11-06T10:25:58.720Z,4.13
2022-11-06T10:31:15.190Z,4.38
2022-11-06T10:36:30.259Z,4.20
2022-11-06T10:41:35.350Z,3.33
2022-11-06T10:46:40.075Z,3.55
2022-11-06T10:51:59.681Z,4.00
2022-11-06T10:57:15.249Z,3.35
2022-11-06T11:02:25.144Z,3.63
2022-11-06T11:07:31.410Z,2.80
2022-11-06T11:12:33.689Z,2.60
2022-11-06T11:17:35.283Z,2.33
2022-11-06T11:22:36.602Z,2.47
2022-11-06T11:27:44.651Z,2.05
2022-11-06T11:32:46.106Z,2.17
2022-11-06T11:37:47.604Z,2.13
2022-11-06T11:42:49.398Z,1.95
2022-11-06T11:47:51.933Z,1.60
2022-11-06T11:53:14.708Z,2.03
2022-11-06T11:58:23.345Z,1.83
2022-11-06T12:03:29.104Z,1.13
2022-11-06T12:08:30.919Z,1.73
2022-11-06T12:13:32.639Z,1.83
2022-11-06T12:18:47.629Z,1.45
2022-11-06T12:23:56.190Z,1.33
2022-11-06T12:29:16.191Z,1.83
2022-11-06T12:34:26.966Z,1.40
2022-11-06T12:39:33.941Z,1.65
2022-11-06T12:44:35.600Z,1.58
2022-11-06T12:50:03.451Z,1.80
2022-11-06T12:55:12.083Z,1.35
2022-11-06T13:00:23.332Z,2.03
2022-11-06T13:05:29.237Z,1.42
2022-11-06T13:10:42.527Z,1.70
2022-11-06T13:15:46.860Z,1.50
2022-11-06T13:21:13.685Z,1.40
2022-11-06T13:26:32.393Z,1.20
2022-11-06T13:31:55.490Z,1.70
2022-11-06T13:36:58.047Z,1.27
2022-11-06T13:42:01.360Z,1.35
2022-11-06T13:47:19.633Z,2.15
2022-11-06T13:52:26.126Z,1.73
2022-11-06T13:57:55.801Z,2.03
2022-11-06T14:03:23.755Z,1.70
2022-11-06T14:08:30.412Z,2.40
2022-11-06T14:13:34.546Z,2.20
2022-11-06T14:23:37.933Z,2.08
2022-11-06T14:28:41.831Z,2.15
2022-11-06T14:33:43.223Z,1.67
2022-11-06T14:38:45.244Z,1.85
2022-11-06T14:43:51.151Z,2.13
2022-11-06T14:48:55.950Z,2.25
2022-11-06T14:54:07.119Z,2.17
2022-11-06T14:59:20.652Z,2.10
2022-11-06T15:04:31.806Z,2.10
2022-11-06T15:09:39.394Z,1.55
2022-11-06T15:14:40.680Z,1.98
2022-11-06T15:19:50.321Z,2.00
2022-11-06T15:25:03.630Z,2.05
2022-11-06T15:30:05.872Z,1.90
2022-11-06T15:35:13.639Z,1.95
2022-11-06T15:40:29.494Z,1.27
2022-11-06T15:45:30.902Z,1.40
2022-11-06T15:50:34.093Z,1.48
2022-11-06T15:55:38.389Z,1.98
2022-11-06T16:00:41.420Z,2.17
2022-11-06T16:05:45.650Z,2.25
2022-11-06T16:10:50.953Z,1.95
2022-11-06T16:15:58.821Z,2.25
2022-11-06T16:21:21.097Z,1.85
2022-11-06T16:26:27.820Z,14.73
2022-11-06T16:31:31.261Z,6.88
2022-11-06T16:36:58.644Z,3.42
2022-11-06T16:42:09.374Z,1.95
2022-11-06T16:47:11.796Z,2.15
2022-11-06T16:52:16.141Z,2.40
2022-11-06T16:57:21.513Z,4.78
2022-11-06T17:02:26.717Z,2.90
2022-11-06T17:07:28.571Z,5.80
2022-11-06T17:12:29.978Z,4.25
2022-11-06T17:17:32.752Z,5.80
2022-11-06T17:22:35.753Z,5.32
2022-11-06T17:27:37.147Z,9.52
2022-11-06T17:32:38.756Z,8.23
2022-11-06T17:37:40.142Z,13.77
2022-11-06T17:42:41.472Z,6.70
2022-11-06T17:47:42.964Z,4.80
2022-11-06T17:52:44.389Z,31.52
2022-11-06T17:57:45.949Z,5.50
2022-11-06T18:03:01.034Z,7.43
2022-11-06T18:08:03.250Z,7.32
2022-11-06T18:13:05.399Z,13.10
2022-11-06T18:18:06.731Z,7.25
2022-11-06T18:23:08.048Z,5.93
2022-11-06T18:28:09.771Z,5.43
2022-11-06T18:33:11.117Z,17.40
2022-11-06T18:38:14.094Z,13.48
2022-11-06T18:43:15.906Z,6.97
2022-11-06T18:48:21.344Z,5.82
2022-11-06T18:53:23.457Z,6.55
2022-11-06T18:58:24.870Z,6.22
2022-11-06T19:03:26.561Z,6.03
2022-11-06T19:08:28.163Z,26.27
2022-11-06T19:13:29.480Z,7.45
2022-11-06T19:18:36.474Z,6.43
2022-11-06T19:23:40.319Z,5.07
2022-11-06T19:28:42.999Z,6.10
2022-11-06T19:33:44.612Z,5.20
2022-11-06T19:38:45.925Z,5.28
2022-11-06T19:43:47.596Z,5.70
2022-11-06T19:48:49.022Z,4.70
2022-11-06T19:53:54.076Z,4.88
2022-11-06T19:58:55.490Z,5.43
2022-11-06T20:03:56.869Z,3.88
2022-11-06T20:08:58.430Z,3.97
2022-11-06T20:13:59.988Z,3.58
2022-11-06T20:19:01.867Z,3.10
2022-11-06T20:24:03.462Z,3.80
2022-11-06T20:29:05.357Z,3.50
2022-11-06T20:34:06.688Z,3.30
2022-11-06T20:39:09.096Z,3.25
2022-11-06T20:44:10.433Z,3.60
2022-11-06T20:49:11.768Z,3.53
2022-11-06T20:54:13.110Z,3.13
2022-11-06T20:59:14.841Z,3.53
2022-11-06T21:04:16.587Z,3.72
2022-11-06T21:09:18.218Z,4.03
2022-11-06T21:14:19.731Z,4.05
2022-11-06T21:19:21.074Z,3.92
2022-11-06T21:24:23.822Z,3.58
2022-11-06T21:29:25.544Z,3.70
2022-11-06T21:34:27.114Z,3.85
2022-11-06T21:39:31.832Z,3.45
2022-11-06T21:44:37.213Z,3.85
2022-11-06T21:49:38.655Z,3.42
2022-11-06T21:54:59.149Z,3.30
2022-11-06T22:00:01.276Z,3.05
2022-11-06T22:05:03.124Z,3.22
2022-11-06T22:10:04.828Z,3.22
2022-11-06T22:15:06.765Z,3.53
2022-11-06T22:20:08.695Z,4.07
2022-11-06T22:25:10.038Z,3.10
2022-11-06T22:30:12.178Z,3.13
2022-11-06T22:35:13.470Z,3.00
2022-11-06T22:40:14.731Z,2.58
2022-11-06T22:45:16.003Z,2.45
2022-11-06T22:50:17.263Z,2.40
2022-11-06T22:55:18.505Z,2.78
2022-11-06T23:00:22.258Z,2.40
2022-11-06T23:05:23.498Z,2.10
2022-11-06T23:10:30.392Z,1.70
2022-11-06T23:15:33.511Z,2.38
2022-11-06T23:20:34.941Z,2.35
2022-11-06T23:25:37.775Z,2.22
2022-11-06T23:30:39.063Z,2.42
2022-11-06T23:35:40.404Z,2.13
2022-11-06T23:40:41.648Z,2.08
2022-11-06T23:45:49.056Z,2.58
2022-11-06T23:50:50.328Z,2.10
2022-11-06T23:55:51.589Z,1.83
